createdAt,value
2018-11-21T00:02:06.352Z,102668.18
2018-11-21T00:04:35.030Z,102667.14
2018-11-21T00:07:03.328Z,102667.46
2018-11-21T00:09:31.650Z,102664.81
2018-11-21T00:11:59.975Z,102673.42
2018-11-21T00:14:27.708Z,102674.31
2018-11-21T00:16:56.030Z,102673.84
2018-11-21T00:19:24.345Z,102675.97
2018-11-21T00:21:53.242Z,102678.63
2018-11-21T00:24:21.591Z,102674.97
2018-11-21T00:26:49.901Z,102677.39
2018-11-21T00:29:18.220Z,102683.31
2018-11-21T00:31:45.958Z,102680.09
2018-11-21T00:34:14.842Z,102672.81
2018-11-21T00:36:43.460Z,102666.10
2018-11-21T00:39:11.193Z,102667.34
2018-11-21T00:41:39.505Z,102665.73
2018-11-21T00:44:08.394Z,102664.92
2018-11-21T00:46:36.713Z,102664.28
2018-11-21T00:49:05.028Z,102666.41
2018-11-21T00:51:33.330Z,102668.48
2018-11-21T00:54:01.766Z,102669.49
2018-11-21T00:56:29.547Z,102669.06
2018-11-21T00:58:58.398Z,102665.54
2018-11-21T01:01:26.137Z,102664.89
2018-11-21T01:03:55.033Z,102663.14
2018-11-21T01:06:22.770Z,102664.81
2018-11-21T01:08:51.662Z,102661.67
2018-11-21T01:11:19.981Z,102665.14
2018-11-21T01:13:47.711Z,102665.15
2018-11-21T01:16:16.015Z,102663.47
2018-11-21T01:18:44.334Z,102664.28
2018-11-21T01:21:13.220Z,102662.86
2018-11-21T01:23:40.958Z,102664.92
2018-11-21T01:26:09.297Z,102657.00
2018-11-21T01:28:37.605Z,102660.39
2018-11-21T01:31:06.496Z,102656.92
2018-11-21T01:33:34.808Z,102658.47
2018-11-21T01:36:02.544Z,102655.61
2018-11-21T01:38:30.859Z,102658.42
2018-11-21T01:40:59.750Z,102658.31
2018-11-21T01:43:28.055Z,102659.73
2018-11-21T01:45:56.367Z,102671.03
2018-11-21T01:48:24.105Z,102667.23
2018-11-21T01:50:53.005Z,102659.19
2018-11-21T01:53:21.325Z,102663.42
2018-11-21T01:55:49.062Z,102663.47
2018-11-21T01:58:17.967Z,102657.00
2018-11-21T02:00:46.281Z,102656.50
2018-11-21T02:03:14.595Z,102657.28
2018-11-21T02:05:42.350Z,102659.88
2018-11-21T02:08:10.718Z,102654.50
2018-11-21T02:10:39.544Z,102649.78
2018-11-21T02:13:07.857Z,102652.95
2018-11-21T02:15:36.172Z,102651.36
2018-11-21T02:18:04.803Z,102651.86
2018-11-21T02:20:32.543Z,102647.89
2018-11-21T02:23:00.852Z,102650.36
2018-11-21T02:25:29.748Z,102650.13
2018-11-21T02:27:57.553Z,102647.36
2018-11-21T02:30:26.404Z,102650.92
2018-11-21T02:32:54.715Z,102651.16
2018-11-21T02:35:22.451Z,102650.80
2018-11-21T02:37:50.764Z,102653.20
2018-11-21T02:40:19.659Z,102651.42
2018-11-21T02:42:47.988Z,102650.55
2018-11-21T02:45:16.314Z,102649.91
2018-11-21T02:47:44.038Z,102643.87
2018-11-21T02:50:12.940Z,102644.48
2018-11-21T02:52:41.263Z,102644.31
2018-11-21T02:55:09.592Z,102648.05
2018-11-21T02:57:37.823Z,102649.50
2018-11-21T03:00:06.214Z,102646.66
2018-11-21T03:02:34.532Z,102648.51
2018-11-21T03:05:02.268Z,102648.55
2018-11-21T03:07:30.603Z,102643.98
2018-11-21T03:09:58.914Z,102647.02
2018-11-21T03:12:28.001Z,102652.86
2018-11-21T03:14:56.315Z,102649.08
2018-11-21T03:17:24.633Z,102649.34
2018-11-21T03:19:52.954Z,102649.55
2018-11-21T03:22:20.690Z,102649.57
2018-11-21T03:24:48.997Z,102655.28
2018-11-21T03:27:17.885Z,102652.36
2018-11-21T03:29:46.260Z,102657.27
2018-11-21T03:32:13.993Z,102655.99
2018-11-21T03:34:42.878Z,102657.41
2018-11-21T03:37:11.194Z,102658.16
2018-11-21T03:39:38.997Z,102660.53
2018-11-21T03:42:08.667Z,102661.84
2018-11-21T03:44:37.112Z,102663.50
2018-11-21T03:47:05.027Z,102664.47
2018-11-21T03:49:32.936Z,102667.00
2018-11-21T03:52:01.823Z,102667.78
2018-11-21T03:54:30.139Z,102676.41
2018-11-21T03:56:58.454Z,102669.14
2018-11-21T03:59:26.758Z,102676.98
2018-11-21T04:01:55.354Z,102677.44
2018-11-21T04:04:23.080Z,102670.89
2018-11-21T04:06:51.388Z,102675.50
2018-11-21T04:09:19.702Z,102674.00
2018-11-21T04:11:48.019Z,102672.26
2018-11-21T04:14:16.387Z,102672.91
2018-11-21T04:16:44.703Z,102669.38
2018-11-21T04:19:13.592Z,102668.92
2018-11-21T04:21:41.331Z,102674.91
2018-11-21T04:24:09.944Z,102672.52
2018-11-21T04:26:38.533Z,102669.01
2018-11-21T04:29:06.472Z,102670.80
2018-11-21T04:31:35.655Z,102670.81
2018-11-21T04:34:03.382Z,102670.30
2018-11-21T04:36:31.789Z,102670.99
2018-11-21T04:39:00.096Z,102667.20
2018-11-21T04:41:28.406Z,102666.41
2018-11-21T04:43:56.733Z,102668.69
2018-11-21T04:46:25.056Z,102670.38
2018-11-21T04:48:53.965Z,102674.94
2018-11-21T04:51:21.684Z,102672.59
2018-11-21T04:53:50.105Z,102676.58
2018-11-21T04:56:18.294Z,102672.05
2018-11-21T04:58:47.185Z,102669.33
2018-11-21T05:01:14.919Z,102671.31
2018-11-21T05:03:43.236Z,102672.03
2018-11-21T05:06:12.130Z,102672.89
2018-11-21T05:08:40.454Z,102674.05
2018-11-21T05:11:08.796Z,102674.13
2018-11-21T05:13:36.527Z,102677.95
2018-11-21T05:16:04.859Z,102674.67
2018-11-21T05:18:33.145Z,102671.43
2018-11-21T05:21:01.460Z,102669.83
2018-11-21T05:23:29.767Z,102675.61
2018-11-21T05:25:58.075Z,102669.41
2018-11-21T05:28:27.116Z,102670.72
2018-11-21T05:30:54.906Z,102664.37
2018-11-21T05:33:23.241Z,102664.94
2018-11-21T05:35:51.555Z,102669.53
2018-11-21T05:38:19.862Z,102664.59
2018-11-21T05:40:48.770Z,102659.95
2018-11-21T05:43:16.504Z,102660.94
2018-11-21T05:45:45.395Z,102663.92
2018-11-21T05:48:13.701Z,102676.11
2018-11-21T05:50:41.439Z,102678.16
2018-11-21T05:53:10.341Z,102688.86
2018-11-21T05:55:38.072Z,102688.11
2018-11-21T05:58:06.953Z,102684.09
2018-11-21T06:00:35.274Z,102677.92
2018-11-21T06:03:03.614Z,102682.07
2018-11-21T06:05:31.960Z,102685.72
2018-11-21T06:08:00.279Z,102689.35
2018-11-21T06:10:28.594Z,102690.19
2018-11-21T06:12:56.911Z,102692.28
2018-11-21T06:15:25.217Z,102691.76
2018-11-21T06:17:53.532Z,102694.23
2018-11-21T06:20:21.846Z,102697.58
2018-11-21T06:22:50.156Z,102699.69
2018-11-21T06:25:18.470Z,102700.42
2018-11-21T06:27:46.797Z,102701.06
2018-11-21T06:30:15.135Z,102699.55
2018-11-21T06:32:43.445Z,102700.11
2018-11-21T06:35:11.810Z,102707.09
2018-11-21T06:37:40.134Z,102708.84
2018-11-21T06:40:07.864Z,102712.77
2018-11-21T06:42:36.172Z,102713.91
2018-11-21T06:45:05.067Z,102718.73
2018-11-21T06:47:32.810Z,102722.96
2018-11-21T06:50:01.158Z,102719.00
2018-11-21T06:52:30.041Z,102708.42
2018-11-21T06:54:57.775Z,102718.72
2018-11-21T06:57:26.673Z,102723.28
2018-11-21T06:59:54.970Z,102721.78
2018-11-21T07:02:22.975Z,102722.64
2018-11-21T07:04:51.420Z,102731.20
2018-11-21T07:07:20.194Z,102736.64
2018-11-21T07:09:48.794Z,102740.91
2018-11-21T07:12:16.544Z,102742.18
2018-11-21T07:14:44.859Z,102740.72
2018-11-21T07:17:13.256Z,102741.31
2018-11-21T07:19:41.520Z,102744.56
2018-11-21T07:22:10.415Z,102738.44
2018-11-21T07:24:38.738Z,102742.80
2018-11-21T07:27:06.459Z,102742.11
2018-11-21T07:29:35.371Z,102747.33
2018-11-21T07:32:03.661Z,102750.31
2018-11-21T07:34:31.429Z,102753.52
2018-11-21T07:37:00.345Z,102755.09
2018-11-21T07:39:28.661Z,102751.75
2018-11-21T07:41:56.402Z,102752.89
2018-11-21T07:44:24.754Z,102753.41
2018-11-21T07:46:53.070Z,102753.27
2018-11-21T07:49:21.393Z,102759.98
2018-11-21T07:51:49.701Z,102759.83
2018-11-21T07:54:18.013Z,102763.50
2018-11-21T07:56:52.549Z,102764.72
2018-11-21T07:59:20.912Z,102771.78
2018-11-21T08:01:48.682Z,102770.22
2018-11-21T08:04:17.557Z,102777.47
2018-11-21T08:06:45.878Z,102778.33
2018-11-21T08:09:13.617Z,102778.13
2018-11-21T08:11:42.521Z,102785.92
2018-11-21T08:14:10.828Z,102787.75
2018-11-21T08:16:38.586Z,102789.44
2018-11-21T08:19:07.507Z,102784.94
2018-11-21T08:21:35.827Z,102785.45
2018-11-21T08:24:03.556Z,102789.36
2018-11-21T08:26:32.138Z,102789.84
2018-11-21T08:29:01.037Z,102789.80
2018-11-21T08:31:28.798Z,102795.56
2018-11-21T08:33:58.265Z,102797.78
2018-11-21T08:36:26.349Z,102793.92
2018-11-21T08:38:54.318Z,102804.03
2018-11-21T08:41:23.033Z,102798.42
2018-11-21T08:43:51.676Z,102803.32
2018-11-21T08:46:19.426Z,102795.00
2018-11-21T08:48:48.313Z,102799.30
2018-11-21T08:51:16.637Z,102800.57
2018-11-21T08:53:44.982Z,102795.44
2018-11-21T08:56:13.290Z,102797.30
2018-11-21T08:58:41.604Z,102797.69
2018-11-21T09:01:09.939Z,102800.83
2018-11-21T09:03:38.257Z,102801.65
2018-11-21T09:06:06.592Z,102800.15
2018-11-21T09:08:35.613Z,102803.23
2018-11-21T09:11:03.418Z,102807.67
2018-11-21T09:13:31.120Z,102805.58
2018-11-21T09:15:59.457Z,102806.21
2018-11-21T09:18:28.352Z,102810.62
2018-11-21T09:20:56.668Z,102805.53
2018-11-21T09:23:24.992Z,102801.34
2018-11-21T09:25:53.307Z,102799.41
2018-11-21T09:28:21.683Z,102797.61
2018-11-21T09:30:50.000Z,102802.14
2018-11-21T09:33:18.310Z,102801.68
2018-11-21T09:35:46.627Z,102804.83
2018-11-21T09:38:14.371Z,102802.63
2018-11-21T09:40:43.328Z,102806.07
2018-11-21T09:43:11.047Z,102816.44
2018-11-21T09:45:39.946Z,102811.39
2018-11-21T09:48:07.676Z,102811.08
2018-11-21T09:50:36.619Z,102813.89
2018-11-21T09:53:04.927Z,102807.80
2018-11-21T09:55:33.241Z,102804.41
2018-11-21T09:58:01.549Z,102803.59
2018-11-21T10:00:36.555Z,102803.69
2018-11-21T10:03:04.469Z,102803.95
2018-11-21T10:05:33.396Z,102802.98
2018-11-21T10:08:01.764Z,102805.09
2018-11-21T10:10:30.118Z,102802.64
2018-11-21T10:12:59.271Z,102805.11
2018-11-21T10:15:26.899Z,102800.97
2018-11-21T10:17:54.696Z,102799.20
2018-11-21T10:20:23.666Z,102805.98
2018-11-21T10:22:51.999Z,102801.63
2018-11-21T10:25:20.345Z,102803.20
2018-11-21T10:27:48.126Z,102803.98
2018-11-21T10:30:16.442Z,102805.39
2018-11-21T10:32:44.752Z,102796.64
2018-11-21T10:35:13.679Z,102803.13
2018-11-21T10:37:42.047Z,102801.91
2018-11-21T10:40:10.699Z,102804.91
2018-11-21T10:42:39.074Z,102803.41
2018-11-21T10:45:07.713Z,102807.16
2018-11-21T10:47:35.877Z,102810.80
2018-11-21T10:50:04.208Z,102807.11
2018-11-21T10:52:31.963Z,102806.51
2018-11-21T10:55:00.283Z,102810.13
2018-11-21T10:57:30.759Z,102808.66
2018-11-21T10:59:58.270Z,102812.34
2018-11-21T11:02:26.921Z,102810.09
2018-11-21T11:04:54.657Z,102811.75
2018-11-21T11:07:23.541Z,102810.33
2018-11-21T11:09:51.868Z,102806.92
2018-11-21T11:12:20.190Z,102807.61
2018-11-21T11:14:48.515Z,102804.38
2018-11-21T11:17:16.254Z,102801.20
2018-11-21T11:19:44.572Z,102805.64
2018-11-21T11:22:13.458Z,102800.44
2018-11-21T11:24:41.196Z,102806.80
2018-11-21T11:27:09.505Z,102808.65
2018-11-21T11:29:37.820Z,102808.76
2018-11-21T11:32:06.131Z,102809.86
2018-11-21T11:34:34.453Z,102808.38
2018-11-21T11:37:02.778Z,102807.66
2018-11-21T11:39:31.925Z,102801.93
2018-11-21T11:41:59.615Z,102802.12
2018-11-21T11:44:28.377Z,102801.06
2018-11-21T11:46:56.686Z,102806.37
2018-11-21T11:49:25.021Z,102808.56
2018-11-21T11:51:53.340Z,102808.88
2018-11-21T11:54:21.654Z,102806.83
2018-11-21T11:56:49.386Z,102806.89
2018-11-21T11:59:17.700Z,102803.53
2018-11-21T12:01:46.022Z,102802.06
2018-11-21T12:04:14.337Z,102803.20
2018-11-21T12:06:43.242Z,102794.30
2018-11-21T12:09:10.978Z,102793.34
2018-11-21T12:11:39.287Z,102791.90
2018-11-21T12:14:08.890Z,102788.36
2018-11-21T12:16:36.503Z,102781.66
2018-11-21T12:19:04.812Z,102784.91
2018-11-21T12:21:33.135Z,102786.58
2018-11-21T12:24:00.869Z,102782.52
2018-11-21T12:26:29.185Z,102783.67
2018-11-21T12:28:58.065Z,102784.08
2018-11-21T12:31:25.800Z,102784.84
2018-11-21T12:33:54.114Z,102779.52
2018-11-21T12:36:22.751Z,102778.87
2018-11-21T12:38:51.648Z,102778.81
2018-11-21T12:41:19.993Z,102780.07
2018-11-21T12:43:48.291Z,102780.59
2018-11-21T12:46:16.630Z,102781.48
2018-11-21T12:48:44.981Z,102781.58
2018-11-21T12:51:12.715Z,102776.50
2018-11-21T12:53:41.033Z,102778.63
2018-11-21T12:56:09.940Z,102779.28
2018-11-21T12:58:37.680Z,102768.66
2018-11-21T13:01:05.999Z,102769.69
2018-11-21T13:03:34.306Z,102769.04
2018-11-21T13:06:03.205Z,102772.08
2018-11-21T13:08:30.943Z,102772.42
2018-11-21T13:10:59.261Z,102778.89
2018-11-21T13:13:28.162Z,102776.41
2018-11-21T13:15:55.923Z,102778.19
2018-11-21T13:18:24.819Z,102773.32
2018-11-21T13:20:53.146Z,102774.58
2018-11-21T13:23:22.479Z,102774.63
2018-11-21T13:25:49.792Z,102772.28
2018-11-21T13:28:18.114Z,102774.64
2018-11-21T13:30:47.024Z,102777.42
2018-11-21T13:33:15.382Z,102773.34
2018-11-21T13:35:43.690Z,102767.78
2018-11-21T13:38:11.443Z,102765.17
2018-11-21T13:40:40.373Z,102756.06
2018-11-21T13:43:08.705Z,102754.78
2018-11-21T13:45:38.281Z,102755.25
2018-11-21T13:48:05.822Z,102760.05
2018-11-21T13:50:34.351Z,102759.08
2018-11-21T13:53:02.470Z,102755.03
2018-11-21T13:55:31.368Z,102753.83
2018-11-21T13:57:59.691Z,102752.64
2018-11-21T14:00:28.015Z,102753.21
2018-11-21T14:02:55.753Z,102750.39
2018-11-21T14:05:24.067Z,102748.95
2018-11-21T14:07:52.995Z,102748.74
2018-11-21T14:10:21.636Z,102753.84
2018-11-21T14:12:49.989Z,102749.31
2018-11-21T14:15:19.113Z,102750.47
2018-11-21T14:17:48.378Z,102754.06
2018-11-21T14:20:16.110Z,102752.75
2018-11-21T14:22:44.996Z,102749.42
2018-11-21T14:25:13.333Z,102741.06
2018-11-21T14:27:41.659Z,102741.31
2018-11-21T14:30:09.996Z,102736.36
2018-11-21T14:32:38.610Z,102733.78
2018-11-21T14:35:06.676Z,102735.59
2018-11-21T14:37:35.001Z,102733.31
2018-11-21T14:40:03.328Z,102745.11
2018-11-21T14:42:31.635Z,102740.83
2018-11-21T14:44:59.960Z,102746.72
2018-11-21T14:47:28.186Z,102748.08
2018-11-21T14:49:56.080Z,102746.09
2018-11-21T14:52:24.994Z,102747.66
2018-11-21T14:54:53.335Z,102748.95
2018-11-21T14:57:21.107Z,102755.14
2018-11-21T14:59:50.041Z,102758.10
2018-11-21T15:02:17.784Z,102763.14
2018-11-21T15:04:46.679Z,102763.28
2018-11-21T15:07:15.031Z,102761.58
2018-11-21T15:09:43.388Z,102766.06
2018-11-21T15:12:11.708Z,102765.48
2018-11-21T15:14:40.040Z,102766.73
2018-11-21T15:17:08.391Z,102768.40
2018-11-21T15:19:36.723Z,102768.82
2018-11-21T15:22:05.048Z,102772.23
2018-11-21T15:24:32.813Z,102763.92
2018-11-21T15:27:01.721Z,102769.05
2018-11-21T15:29:30.643Z,102769.34
2018-11-21T15:31:58.365Z,102773.34
2018-11-21T15:34:26.692Z,102774.34
2018-11-21T15:36:55.876Z,102776.69
2018-11-21T15:39:24.210Z,102780.09
2018-11-21T15:41:52.534Z,102779.90
2018-11-21T15:44:20.296Z,102786.94
2018-11-21T15:46:49.208Z,102782.72
2018-11-21T15:49:17.532Z,102783.14
2018-11-21T15:51:46.386Z,102784.78
2018-11-21T15:54:14.697Z,102784.86
2018-11-21T15:56:43.014Z,102787.44
2018-11-21T15:59:10.751Z,102793.70
2018-11-21T16:01:39.659Z,102794.66
2018-11-21T16:04:07.976Z,102792.02
2018-11-21T16:06:36.309Z,102798.53
2018-11-21T16:09:04.668Z,102798.58
2018-11-21T16:11:32.949Z,102802.44
2018-11-21T16:14:00.696Z,102807.09
2018-11-21T16:16:37.622Z,102810.51
2018-11-21T16:19:05.402Z,102808.63
2018-11-21T16:21:34.293Z,102809.56
2018-11-21T16:24:02.034Z,102807.52
2018-11-21T16:26:30.932Z,102809.14
2018-11-21T16:28:59.254Z,102810.51
2018-11-21T16:31:27.563Z,102815.16
2018-11-21T16:33:55.881Z,102818.56
2018-11-21T16:36:27.261Z,102822.38
2018-11-21T16:38:53.276Z,102820.53
2018-11-21T16:41:21.366Z,102823.62
2018-11-21T16:43:49.108Z,102822.22
2018-11-21T16:46:18.031Z,102820.44
2018-11-21T16:48:46.378Z,102821.06
2018-11-21T16:51:14.715Z,102820.56
2018-11-21T16:53:42.500Z,102819.46
2018-11-21T16:56:11.394Z,102824.62
2018-11-21T16:58:39.712Z,102824.97
2018-11-21T17:01:08.025Z,102825.09
2018-11-21T17:03:36.206Z,102823.47
2018-11-21T17:06:04.711Z,102824.55
2018-11-21T17:08:33.020Z,102826.59
2018-11-21T17:11:01.685Z,102829.47
2018-11-21T17:13:29.996Z,102826.53
2018-11-21T17:15:58.313Z,102825.32
2018-11-21T17:18:26.645Z,102825.90
2018-11-21T17:20:54.968Z,102827.74
2018-11-21T17:23:23.282Z,102825.20
2018-11-21T17:25:51.045Z,102829.22
2018-11-21T17:28:19.362Z,102832.26
2018-11-21T17:30:47.741Z,102838.20
2018-11-21T17:33:16.058Z,102836.45
2018-11-21T17:35:44.952Z,102840.46
2018-11-21T17:38:12.708Z,102837.28
2018-11-21T17:40:41.663Z,102835.33
2018-11-21T17:43:10.261Z,102838.11
2018-11-21T17:45:38.812Z,102838.34
2018-11-21T17:48:07.135Z,102840.17
2018-11-21T17:50:35.456Z,102840.46
2018-11-21T17:53:03.779Z,102840.59
2018-11-21T17:55:31.733Z,102839.02
2018-11-21T17:58:00.617Z,102840.05
2018-11-21T18:00:28.336Z,102842.60
2018-11-21T18:02:56.657Z,102841.11
2018-11-21T18:05:25.600Z,102837.48
2018-11-21T18:07:53.917Z,102836.09
2018-11-21T18:10:23.129Z,102835.91
2018-11-21T18:12:50.870Z,102840.21
2018-11-21T18:15:19.767Z,102839.03
2018-11-21T18:17:48.075Z,102836.45
2018-11-21T18:20:16.744Z,102838.47
2018-11-21T18:22:44.497Z,102834.20
2018-11-21T18:25:13.415Z,102838.20
2018-11-21T18:27:41.146Z,102840.50
2018-11-21T18:30:10.114Z,102838.93
2018-11-21T18:32:38.473Z,102839.63
2018-11-21T18:35:06.811Z,102842.95
2018-11-21T18:37:35.179Z,102839.64
2018-11-21T18:40:03.056Z,102842.36
2018-11-21T18:42:31.950Z,102840.23
2018-11-21T18:45:00.287Z,102841.67
2018-11-21T18:47:28.838Z,102846.09
2018-11-21T18:49:57.212Z,102847.81
2018-11-21T18:52:25.548Z,102852.39
2018-11-21T18:54:53.964Z,102852.48
2018-11-21T18:57:22.339Z,102857.02
2018-11-21T18:59:51.735Z,102856.09
2018-11-21T19:02:20.861Z,102854.89
2018-11-21T19:04:48.635Z,102853.60
2018-11-21T19:07:17.734Z,102857.70
2018-11-21T19:09:46.296Z,102858.16
2018-11-21T19:12:14.648Z,102862.74
2018-11-21T19:14:43.077Z,102859.72
2018-11-21T19:17:11.390Z,102861.65
2018-11-21T19:19:41.132Z,102862.17
2018-11-21T19:22:08.649Z,102867.48
2018-11-21T19:24:37.255Z,102863.84
2018-11-21T19:27:05.588Z,102866.01
2018-11-21T19:29:34.116Z,102866.38
2018-11-21T19:32:02.509Z,102869.28
2018-11-21T19:34:30.949Z,102871.26
2018-11-21T19:36:59.311Z,102871.84
2018-11-21T19:39:28.353Z,102873.19
2018-11-21T19:41:56.697Z,102870.41
2018-11-21T19:44:25.044Z,102871.45
2018-11-21T19:46:53.396Z,102870.36
2018-11-21T19:49:21.965Z,102877.28
2018-11-21T19:51:50.560Z,102875.27
2018-11-21T19:54:18.594Z,102874.78
2018-11-21T19:56:46.911Z,102874.81
2018-11-21T19:59:16.269Z,102875.36
2018-11-21T20:01:44.667Z,102878.09
2018-11-21T20:04:13.115Z,102878.63
2018-11-21T20:06:41.606Z,102874.84
2018-11-21T20:09:10.270Z,102874.86
2018-11-21T20:11:39.325Z,102878.22
2018-11-21T20:14:07.696Z,102877.80
2018-11-21T20:16:36.104Z,102874.55
2018-11-21T20:19:04.691Z,102875.52
2018-11-21T20:21:35.122Z,102875.57
2018-11-21T20:24:02.872Z,102879.81
2018-11-21T20:26:32.043Z,102874.66
2018-11-21T20:29:01.543Z,102880.31
2018-11-21T20:31:30.483Z,102878.21
2018-11-21T20:33:59.004Z,102876.31
2018-11-21T20:36:27.328Z,102875.82
2018-11-21T20:38:56.654Z,102872.91
2018-11-21T20:41:24.420Z,102871.14
2018-11-21T20:43:53.401Z,102873.35
2018-11-21T20:46:21.753Z,102870.05
2018-11-21T20:48:50.125Z,102870.47
2018-11-21T20:51:18.488Z,102871.71
2018-11-21T20:53:47.619Z,102868.64
2018-11-21T20:56:15.349Z,102870.36
2018-11-21T20:58:44.461Z,102870.38
2018-11-21T21:01:13.441Z,102868.32
2018-11-21T21:03:42.345Z,102870.94
2018-11-21T21:06:10.077Z,102873.86
2018-11-21T21:08:39.782Z,102867.55
2018-11-21T21:11:08.096Z,102869.72
2018-11-21T21:13:36.610Z,102868.00
2018-11-21T21:16:05.313Z,102869.17
2018-11-21T21:18:32.956Z,102869.36
2018-11-21T21:21:01.301Z,102865.69
2018-11-21T21:23:30.216Z,102867.21
2018-11-21T21:25:58.843Z,102865.25
2018-11-21T21:28:27.150Z,102862.09
2018-11-21T21:30:55.825Z,102865.33
2018-11-21T21:33:24.127Z,102863.30
2018-11-21T21:35:52.480Z,102864.41
2018-11-21T21:38:20.822Z,102866.95
2018-11-21T21:40:48.733Z,102869.83
2018-11-21T21:43:18.296Z,102870.65
2018-11-21T21:45:45.965Z,102870.47
2018-11-21T21:48:15.000Z,102872.05
2018-11-21T21:50:43.324Z,102868.55
2018-11-21T21:53:11.663Z,102870.32
2018-11-21T21:55:40.039Z,102869.22
2018-11-21T21:58:08.515Z,102867.48
2018-11-21T22:00:36.892Z,102866.84
2018-11-21T22:03:05.405Z,102864.84
2018-11-21T22:05:33.729Z,102868.22
2018-11-21T22:08:02.272Z,102864.80
2018-11-21T22:10:30.992Z,102861.84
2018-11-21T22:12:59.690Z,102863.45
2018-11-21T22:15:28.032Z,102862.98
2018-11-21T22:17:56.630Z,102861.95
2018-11-21T22:20:24.377Z,102860.84
2018-11-21T22:22:53.369Z,102855.34
2018-11-21T22:25:22.109Z,102859.76
2018-11-21T22:27:50.507Z,102857.02
2018-11-21T22:30:18.503Z,102858.39
2018-11-21T22:32:47.404Z,102855.66
2018-11-21T22:35:16.026Z,102860.44
2018-11-21T22:37:51.078Z,102862.70
2018-11-21T22:40:13.092Z,102862.39
2018-11-21T22:42:41.559Z,102869.97
2018-11-21T22:45:10.285Z,102865.77
2018-11-21T22:47:38.427Z,102859.22
2018-11-21T22:50:06.990Z,102865.31
2018-11-21T22:52:35.112Z,102861.17
2018-11-21T22:55:03.426Z,102858.84
2018-11-21T22:57:31.907Z,102860.34
2018-11-21T23:00:00.260Z,102856.23
2018-11-21T23:02:28.606Z,102858.32
2018-11-21T23:04:56.954Z,102850.61
2018-11-21T23:07:25.278Z,102850.36
2018-11-21T23:09:53.596Z,102849.19
2018-11-21T23:12:21.987Z,102856.42
2018-11-21T23:14:50.323Z,102856.20
2018-11-21T23:17:18.717Z,102861.47
2018-11-21T23:19:47.041Z,102860.23
2018-11-21T23:22:15.360Z,102858.28
2018-11-21T23:24:43.683Z,102857.88
2018-11-21T23:27:11.437Z,102853.30
2018-11-21T23:29:40.360Z,102852.52
2018-11-21T23:32:08.110Z,102851.69
2018-11-21T23:34:37.783Z,102850.13
2018-11-21T23:37:05.524Z,102847.07
2018-11-21T23:39:33.903Z,102845.44
2018-11-21T23:42:02.226Z,102844.50
2018-11-21T23:44:30.562Z,102843.80
2018-11-21T23:46:59.471Z,102840.03
2018-11-21T23:49:27.791Z,102838.61
2018-11-21T23:51:56.122Z,102846.31
2018-11-21T23:54:23.861Z,102847.09
2018-11-21T23:57:15.745Z,102845.31
2018-11-21T23:59:21.088Z,102845.69
